Time;durP1;ratioP1;P1;durP2;ratioP2;P2;SDS_P1;SDS_P2;PMS_P1;PMS_P2;Temp;Humidity;BMP_temperature;BMP_pressure;BME280_temperature;BME280_humidity;BME280_pressure;Samples;Min_cycle;Max_cycle;Signal;HPM_P1;HPM_P2
2023/06/09 00:01:19;;;;;;;4.72;2.92;;;;;;;18.30;62.71;97592.00;10609305;27;20039;-76
2023/06/09 00:06:40;;;;;;;4.97;2.83;;;;;;;18.34;62.54;97589.34;10611577;27;20037;-77
2023/06/09 00:12:00;;;;;;;7.25;2.80;;;;;;;18.33;62.35;97589.97;10637241;27;20057;-76
2023/06/09 00:17:24;;;;;;;6.53;2.83;;;;;;;18.33;62.60;97590.69;10626481;27;20042;-76
2023/06/09 00:22:45;;;;;;;3.45;2.72;;;;;;;18.33;62.46;97585.03;10627234;27;20039;-75
2023/06/09 00:28:06;;;;;;;8.02;2.67;;;;;;;18.31;62.41;97594.16;10654549;27;20388;-75
2023/06/09 00:33:28;;;;;;;6.88;3.05;;;;;;;18.32;62.55;97592.06;10625097;27;20485;-76
2023/06/09 00:38:49;;;;;;;6.38;3.20;;;;;;;18.31;62.12;97591.34;10632311;27;20039;-75
2023/06/09 00:44:12;;;;;;;5.10;2.95;;;;;;;18.24;62.25;97591.81;10632320;27;20046;-76
2023/06/09 00:49:33;;;;;;;4.63;3.20;;;;;;;18.17;62.39;97596.50;10632898;27;20092;-73
2023/06/09 00:54:54;;;;;;;4.35;3.10;;;;;;;18.16;62.30;97592.25;10614451;27;20492;-74
2023/06/09 01:00:16;;;;;;;4.38;3.20;;;;;;;18.15;62.41;97599.28;10606983;27;20034;-75
2023/06/09 01:05:38;;;;;;;4.28;2.90;;;;;;;18.17;62.43;97584.50;10612971;27;20392;-75
2023/06/09 01:11:02;;;;;;;4.68;3.05;;;;;;;18.14;62.48;97594.25;10638519;27;20077;-75
2023/06/09 01:16:31;;;;;;;5.65;3.33;;;;;;;18.08;62.08;97588.41;10624151;27;20067;-75
2023/06/09 01:21:51;;;;;;;6.75;3.40;;;;;;;17.95;62.17;97582.31;10652980;27;20055;-75
2023/06/09 01:27:14;;;;;;;5.00;3.35;;;;;;;17.91;61.77;97585.00;10638050;27;20042;-75
2023/06/09 01:32:35;;;;;;;10.43;3.45;;;;;;;17.80;61.86;97577.53;10638080;27;20126;-76
2023/06/09 01:37:56;;;;;;;5.07;3.47;;;;;;;17.75;61.88;97575.91;10637589;27;20046;-75
2023/06/09 01:43:19;;;;;;;5.77;3.27;;;;;;;17.67;62.16;97565.03;10638241;27;20050;-76
2023/06/09 01:49:06;;;;;;;5.25;3.42;;;;;;;17.65;62.22;97556.47;10623240;27;20067;-75
2023/06/09 01:55:10;;;;;;;4.85;3.70;;;;;;;17.61;62.21;97558.44;10667212;27;20062;-75
2023/06/09 02:00:31;;;;;;;5.93;3.58;;;;;;;17.52;62.21;97553.88;10465589;28;20068;-75
2023/06/09 02:05:52;;;;;;;7.57;3.85;;;;;;;17.44;62.30;97557.84;10643077;27;20123;-74
2023/06/09 02:11:13;;;;;;;6.60;3.97;;;;;;;17.35;62.04;97550.44;10617640;27;20047;-75
2023/06/09 02:16:34;;;;;;;7.72;3.95;;;;;;;17.32;62.32;97551.00;10631157;27;20117;-74
2023/06/09 02:21:55;;;;;;;8.73;3.80;;;;;;;17.24;62.18;97548.59;10631172;27;20493;-77
2023/06/09 02:27:16;;;;;;;6.72;4.07;;;;;;;17.21;62.67;97549.19;10645112;27;20054;-75
2023/06/09 02:32:37;;;;;;;6.35;4.05;;;;;;;17.16;62.59;97542.66;10630446;27;20111;-74
2023/06/09 02:37:58;;;;;;;6.57;3.90;;;;;;;17.09;62.78;97538.16;10659023;27;20082;-74
2023/06/09 02:43:19;;;;;;;6.28;4.30;;;;;;;17.01;63.37;97543.47;10644437;27;20492;-75
2023/06/09 02:48:40;;;;;;;7.05;4.15;;;;;;;16.98;63.06;97537.03;10630180;27;20122;-75
2023/06/09 02:54:01;;;;;;;5.85;3.88;;;;;;;16.98;63.71;97539.84;10629908;27;20062;-75
2023/06/09 02:59:22;;;;;;;6.78;4.00;;;;;;;16.96;63.94;97539.75;10657917;27;20046;-75
2023/06/09 03:04:45;;;;;;;6.45;4.38;;;;;;;17.01;64.32;97538.56;10643825;27;20168;-74
2023/06/09 03:10:06;;;;;;;7.72;4.53;;;;;;;17.05;64.31;97549.25;10643309;27;20038;-73
2023/06/09 03:15:33;;;;;;;7.05;4.68;;;;;;;17.11;64.53;97544.59;10643841;27;20062;-74
2023/06/09 03:20:55;;;;;;;9.73;4.30;;;;;;;17.16;64.58;97546.19;10628475;27;20496;-75
2023/06/09 03:26:17;;;;;;;7.90;4.80;;;;;;;17.22;64.51;97540.06;10643226;27;20072;-75
2023/06/09 03:31:39;;;;;;;8.50;4.60;;;;;;;17.32;64.58;97536.91;10628312;27;20066;-75
2023/06/09 03:37:00;;;;;;;9.20;5.20;;;;;;;17.45;64.62;97533.88;10642237;27;20063;-75
2023/06/09 03:42:21;;;;;;;8.70;4.88;;;;;;;17.64;64.48;97538.09;10642453;27;20114;-75
2023/06/09 03:47:42;;;;;;;8.18;4.90;;;;;;;17.81;64.59;97538.72;10643609;27;20469;-74
2023/06/09 03:53:03;;;;;;;8.80;5.10;;;;;;;17.98;64.24;97544.31;10618107;27;20035;-75
2023/06/09 03:58:25;;;;;;;9.88;4.60;;;;;;;18.14;63.91;97544.13;10627396;27;20405;-74
2023/06/09 04:03:46;;;;;;;11.88;4.80;;;;;;;18.41;63.65;97551.41;10618684;27;20046;-74
2023/06/09 04:09:07;;;;;;;7.63;4.95;;;;;;;18.72;63.29;97555.25;10618576;27;20070;-74
2023/06/09 04:14:28;;;;;;;8.88;4.45;;;;;;;18.98;63.00;97552.56;10618482;27;20038;-74
2023/06/09 04:19:51;;;;;;;6.22;4.40;;;;;;;19.13;62.48;97546.72;10632432;27;20037;-73
2023/06/09 04:25:13;;;;;;;5.80;4.45;;;;;;;19.24;61.92;97561.88;10605427;27;20117;-74
2023/06/09 04:30:35;;;;;;;8.40;5.47;;;;;;;19.28;62.23;97552.78;10648898;27;20042;-73
2023/06/09 04:36:03;;;;;;;8.75;5.15;;;;;;;19.37;62.24;97551.66;10549590;28;20055;-74
2023/06/09 04:41:26;;;;;;;8.82;5.18;;;;;;;19.42;62.00;97548.28;10560503;28;20067;-74
2023/06/09 04:46:49;;;;;;;11.50;5.80;;;;;;;19.44;61.60;97551.16;10560627;28;20044;-74
2023/06/09 04:52:11;;;;;;;10.73;5.00;;;;;;;19.56;61.29;97559.31;10547842;28;20126;-72
2023/06/09 04:57:34;;;;;;;6.70;4.90;;;;;;;19.68;61.52;97567.44;10561030;28;20576;-74
2023/06/09 05:02:57;;;;;;;8.73;5.13;;;;;;;19.82;61.41;97562.19;10539540;28;20048;-74
2023/06/09 05:08:18;;;;;;;6.25;5.10;;;;;;;19.97;60.67;97569.69;10526113;28;20539;-74
2023/06/09 05:13:40;;;;;;;8.32;5.93;;;;;;;20.06;60.51;97579.13;10525637;28;20104;-73
2023/06/09 05:19:02;;;;;;;6.90;4.90;;;;;;;20.16;60.42;97590.03;10539470;28;20040;-72
2023/06/09 05:24:24;;;;;;;7.72;5.47;;;;;;;20.21;60.26;97592.31;10511779;28;20051;-71
2023/06/09 05:29:44;;;;;;;9.40;6.15;;;;;;;20.54;59.67;97598.88;10511184;28;20052;-71
2023/06/09 05:35:06;;;;;;;10.43;5.95;;;;;;;20.86;59.09;97601.81;10560847;28;20059;-72
2023/06/09 05:40:29;;;;;;;10.18;5.88;;;;;;;21.45;58.59;97608.91;10566484;28;20389;-72
2023/06/09 05:45:50;;;;;;;9.07;5.63;;;;;;;22.28;57.87;97613.53;10552518;28;20145;-74
2023/06/09 05:51:12;;;;;;;8.80;5.07;;;;;;;23.02;55.95;97607.03;10580291;28;20100;-75
2023/06/09 05:56:33;;;;;;;11.13;5.67;;;;;;;23.65;54.42;97598.75;10562553;28;20134;-74
2023/06/09 06:01:54;;;;;;;8.15;6.00;;;;;;;23.59;52.27;97607.22;10576429;28;20043;-74
2023/06/09 06:07:15;;;;;;;8.07;5.20;;;;;;;24.07;51.83;97614.97;10561872;28;20063;-75
2023/06/09 06:12:36;;;;;;;10.70;5.70;;;;;;;24.35;49.14;97608.91;10577295;28;20423;-75
2023/06/09 06:17:57;;;;;;;9.13;5.18;;;;;;;24.05;48.74;97615.66;10578177;28;20115;-76
2023/06/09 06:23:18;;;;;;;9.10;5.15;;;;;;;24.18;47.88;97631.50;10580272;28;20040;-76
2023/06/09 06:28:39;;;;;;;9.98;4.95;;;;;;;24.80;46.14;97627.94;10579979;28;20039;-75
2023/06/09 06:34:00;;;;;;;8.68;5.00;;;;;;;25.53;44.61;97635.66;10593139;28;20063;-75
2023/06/09 06:39:22;;;;;;;;;;;;;;;26.32;43.07;97633.25;10623972;28;20035;-75
2023/06/09 06:44:44;;;;;;;5.75;4.88;;;;;;;26.89;41.60;97624.81;10608071;28;20311;-75
2023/06/09 06:50:06;;;;;;;4.88;4.13;;;;;;;27.48;41.07;97632.72;10593806;28;20047;-76
2023/06/09 06:55:28;;;;;;;9.40;4.50;;;;;;;28.36;39.37;97627.47;10613759;27;20035;-75
2023/06/09 07:00:54;;;;;;;6.53;4.38;;;;;;;28.55;36.73;97633.84;10615976;27;20043;-75
2023/06/09 07:06:16;;;;;;;8.02;4.15;;;;;;;28.54;36.07;97629.53;10615170;27;20039;-76
2023/06/09 07:11:37;;;;;;;7.20;4.18;;;;;;;28.56;34.85;97630.25;10615244;27;20046;-75
2023/06/09 07:16:58;;;;;;;6.13;4.47;;;;;;;27.99;35.17;97647.69;10600412;27;20039;-75
2023/06/09 07:22:18;;;;;;;8.80;4.63;;;;;;;27.89;35.32;97642.72;10586036;27;20496;-75
2023/06/09 07:27:39;;;;;;;6.03;4.47;;;;;;;27.13;36.16;97634.91;10629811;27;20043;-75
2023/06/09 07:33:01;;;;;;;6.40;4.13;;;;;;;27.34;36.23;97625.56;10609419;27;20051;-76
2023/06/09 07:38:21;;;;;;;5.20;3.60;;;;;;;27.56;35.00;97635.56;10656888;27;20506;-76
2023/06/09 07:43:46;;;;;;;7.82;4.05;;;;;;;27.57;35.36;97629.13;10656556;27;20039;-76
2023/06/09 07:49:07;;;;;;;6.45;4.03;;;;;;;28.15;34.63;97618.94;10642355;27;20043;-75
2023/06/09 07:54:29;;;;;;;8.10;3.97;;;;;;;28.77;33.41;97614.34;10642050;27;20467;-76
2023/06/09 07:59:50;;;;;;;5.47;3.73;;;;;;;29.12;31.90;97622.00;10655787;27;20046;-76
2023/06/09 08:05:11;;;;;;;5.43;3.53;;;;;;;28.72;32.88;97615.78;10641158;27;20042;-77
2023/06/09 08:10:32;;;;;;;4.35;3.45;;;;;;;29.05;32.67;97627.81;10626829;27;20043;-76
2023/06/09 08:15:53;;;;;;;6.00;3.45;;;;;;;28.59;32.41;97634.53;10626516;27;20456;-76
2023/06/09 08:21:14;;;;;;;5.80;3.50;;;;;;;27.98;33.67;97629.03;10640359;27;20050;-75
2023/06/09 08:26:35;;;;;;;5.93;3.65;;;;;;;28.23;33.17;97613.16;10641734;27;20075;-76
2023/06/09 08:31:57;;;;;;;4.57;3.50;;;;;;;28.23;32.97;97618.91;10617494;27;20047;-76
2023/06/09 08:37:19;;;;;;;5.28;3.42;;;;;;;28.34;33.16;97616.00;10645844;27;20542;-76
2023/06/09 08:42:40;;;;;;;;;;;;;;;28.57;31.88;97614.47;10600402;27;20046;-76
2023/06/09 08:48:02;;;;;;;6.75;3.95;;;;;;;27.45;34.00;97606.22;10630082;27;19923;-77
2023/06/09 08:53:26;;;;;;;3.97;3.20;;;;;;;27.53;33.85;97611.22;10603160;27;20039;-76
2023/06/09 08:58:48;;;;;;;4.95;3.08;;;;;;;27.48;34.54;97621.25;10604176;27;20039;-76
2023/06/09 09:04:09;;;;;;;5.05;3.85;;;;;;;27.01;35.33;97621.22;10606472;27;20042;-75
2023/06/09 09:09:30;;;;;;;4.73;3.70;;;;;;;28.27;34.31;97611.72;10630043;27;20456;-77
2023/06/09 09:14:51;;;;;;;4.18;3.25;;;;;;;28.78;32.79;97621.50;10636744;27;20035;-77
2023/06/09 09:20:14;;;;;;;5.80;3.80;;;;;;;29.17;32.75;97624.13;10638141;27;20118;-75
2023/06/09 09:25:35;;;;;;;5.10;4.10;;;;;;;27.91;34.03;97633.38;10666812;27;20053;-76
2023/06/09 09:30:57;;;;;;;7.70;4.05;;;;;;;27.87;34.75;97631.22;10649592;27;20043;-74
2023/06/09 09:36:17;;;;;;;5.93;3.67;;;;;;;29.82;33.13;97622.78;10633815;27;20039;-75
2023/06/09 09:41:59;;;;;;;6.55;4.40;;;;;;;30.06;31.01;97622.53;10634876;27;20049;-76
2023/06/09 09:47:22;;;;;;;5.15;3.65;;;;;;;29.61;31.04;97614.38;10654201;27;20114;-76
2023/06/09 09:52:43;;;;;;;4.80;3.67;;;;;;;28.86;31.83;97617.88;10637299;27;20046;-75
2023/06/09 09:58:06;;;;;;;6.15;4.15;;;;;;;27.74;33.40;97624.09;10622950;27;20047;-75
2023/06/09 10:03:27;;;;;;;;;;;;;;;27.32;34.24;97619.13;10666658;27;20388;-75
2023/06/09 10:08:48;;;;;;;5.17;3.37;;;;;;;28.30;33.75;97605.28;10637496;27;19926;-74
2023/06/09 10:14:11;;;;;;;4.97;3.67;;;;;;;29.67;30.99;97599.25;10614171;27;20268;-75
2023/06/09 10:19:32;;;;;;;6.43;4.07;;;;;;;29.90;30.14;97599.69;10619740;27;20035;-75
2023/06/09 10:24:53;;;;;;;6.82;4.38;;;;;;;30.34;30.27;97598.47;10633026;27;20431;-75
2023/06/09 10:30:14;;;;;;;6.78;4.43;;;;;;;30.05;30.48;97588.75;10629589;27;20545;-74
2023/06/09 10:35:36;;;;;;;6.00;4.40;;;;;;;30.73;29.89;97580.66;10673669;27;20057;-74
2023/06/09 10:41:27;;;;;;;4.38;3.97;;;;;;;31.39;28.78;97586.09;10686915;27;20491;-75
2023/06/09 10:46:49;;;;;;;5.38;3.88;;;;;;;31.81;28.27;97590.38;10671148;27;20039;-75
2023/06/09 10:52:35;;;;;;;4.72;3.80;;;;;;;32.05;28.15;97589.19;10654372;27;20065;-75
2023/06/09 10:57:57;;;;;;;6.55;3.67;;;;;;;31.75;27.88;97584.69;10669527;27;20071;-75
2023/06/09 11:03:29;;;;;;;5.43;3.85;;;;;;;31.16;28.84;97579.97;10657472;27;20039;-76
2023/06/09 11:09:11;;;;;;;6.20;3.88;;;;;;;31.10;29.25;97574.31;10686627;27;20038;-75
2023/06/09 11:14:44;;;;;;;4.53;3.65;;;;;;;30.55;29.00;97570.09;10659109;27;20038;-75
2023/06/09 11:20:20;;;;;;;4.35;3.92;;;;;;;30.40;29.29;97577.50;10656836;27;20050;-75
2023/06/09 11:25:41;;;;;;;5.70;4.22;;;;;;;30.12;30.00;97567.09;10672782;27;20475;-75
2023/06/09 11:31:03;;;;;;;4.57;3.90;;;;;;;30.11;30.40;97568.53;10642871;27;20043;-75
2023/06/09 11:36:27;;;;;;;4.53;4.13;;;;;;;28.65;31.63;97567.75;10642544;27;20047;-75
2023/06/09 11:41:48;;;;;;;7.65;3.95;;;;;;;27.45;33.36;97580.41;10670560;27;20043;-75
2023/06/09 11:47:23;;;;;;;5.50;4.30;;;;;;;26.32;36.31;97563.84;10642054;27;20047;-75
2023/06/09 11:52:44;;;;;;;8.73;5.57;;;;;;;23.99;44.36;97609.88;10670825;27;20117;-75
2023/06/09 11:58:09;;;;;;;8.32;5.05;;;;;;;22.12;51.94;97601.84;10656325;27;20053;-74
2023/06/09 12:03:33;;;;;;;10.15;5.10;;;;;;;20.99;57.04;97617.03;10655848;27;20467;-74
2023/06/09 12:09:20;;;;;;;8.35;5.18;;;;;;;20.27;62.48;97620.13;10628089;27;20105;-71
2023/06/09 12:14:40;;;;;;;7.40;5.60;;;;;;;19.80;64.50;97615.22;10655070;27;20392;-71
2023/06/09 12:20:27;;;;;;;8.88;6.20;;;;;;;19.53;69.43;97614.41;10654682;27;20043;-74
2023/06/09 12:25:51;;;;;;;8.88;6.88;;;;;;;19.46;71.18;97621.25;10670374;27;20035;-74
2023/06/09 12:31:12;;;;;;;9.23;7.07;;;;;;;19.46;69.65;97615.59;10640351;27;20067;-74
2023/06/09 12:36:39;;;;;;;9.93;6.05;;;;;;;19.68;71.03;97612.75;10654336;27;20046;-73
2023/06/09 12:42:10;;;;;;;7.20;5.60;;;;;;;19.90;71.34;97610.59;10668629;27;20123;-74
2023/06/09 12:47:31;;;;;;;8.25;5.28;;;;;;;20.24;70.71;97618.59;10639645;27;20072;-74
2023/06/09 12:52:52;;;;;;;5.18;3.35;;;;;;;20.89;70.13;97613.94;10652969;27;20046;-74
2023/06/09 12:58:12;;;;;;;3.97;2.85;;;;;;;21.64;68.08;97612.91;10653427;27;20102;-72
2023/06/09 13:03:33;;;;;;;4.53;2.38;;;;;;;22.56;67.16;97601.25;10668758;27;20038;-71
2023/06/09 13:08:55;;;;;;;2.65;2.05;;;;;;;23.52;65.25;97594.97;10668746;27;20054;-72
2023/06/09 13:14:16;;;;;;;3.33;2.40;;;;;;;23.67;61.35;97593.09;10653047;27;20039;-74
2023/06/09 13:19:37;;;;;;;3.05;1.83;;;;;;;24.24;60.13;97588.81;10652992;27;20043;-76
2023/06/09 13:24:57;;;;;;;3.85;1.95;;;;;;;24.67;59.59;97577.84;10668119;27;20070;-75
2023/06/09 13:30:19;;;;;;;5.28;2.45;;;;;;;25.72;58.16;97590.81;10652736;27;20046;-75
2023/06/09 13:35:41;;;;;;;2.78;1.67;;;;;;;26.57;55.16;97594.00;10652058;27;20054;-74
2023/06/09 13:41:02;;;;;;;2.90;1.88;;;;;;;26.48;52.01;97590.41;10638372;27;20046;-75
2023/06/09 13:46:23;;;;;;;2.42;1.27;;;;;;;25.60;51.55;97592.16;10652109;27;20038;-74
2023/06/09 13:51:45;;;;;;;2.17;1.60;;;;;;;25.36;51.77;97592.69;10651967;27;20050;-74
2023/06/09 13:57:06;;;;;;;2.92;1.95;;;;;;;25.26;51.48;97592.63;10651918;27;20400;-74
2023/06/09 14:02:31;;;;;;;2.65;1.88;;;;;;;25.57;50.88;97582.09;10655290;27;20046;-75
2023/06/09 14:07:53;;;;;;;2.43;1.70;;;;;;;25.89;50.87;97580.88;10676296;27;20053;-74
2023/06/09 14:13:14;;;;;;;5.43;1.80;;;;;;;26.35;50.25;97583.19;10631880;27;20071;-75
2023/06/09 14:18:36;;;;;;;2.22;1.48;;;;;;;26.62;48.37;97575.38;10660192;27;20047;-74
2023/06/09 14:23:57;;;;;;;3.00;1.60;;;;;;;26.65;48.14;97571.13;10645165;27;20043;-75
2023/06/09 14:29:19;;;;;;;3.15;1.85;;;;;;;26.80;47.02;97586.16;10659745;27;20395;-75
2023/06/09 14:34:40;;;;;;;5.20;2.10;;;;;;;26.99;46.44;97576.13;10659249;27;20497;-75
2023/06/09 14:40:01;;;;;;;2.63;2.20;;;;;;;27.05;46.26;97584.75;10659084;27;20046;-75
2023/06/09 14:45:23;;;;;;;3.25;2.25;;;;;;;26.94;46.50;97596.91;10644596;27;20031;-74
2023/06/09 14:50:47;;;;;;;3.78;2.47;;;;;;;26.64;47.26;97591.88;10658507;27;20038;-75
2023/06/09 14:56:08;;;;;;;5.60;3.42;;;;;;;26.53;47.93;97579.66;10645081;27;20373;-75
2023/06/09 15:01:29;;;;;;;4.07;2.90;;;;;;;26.32;48.36;97570.28;10658138;27;20050;-74
2023/06/09 15:06:50;;;;;;;3.95;3.20;;;;;;;26.11;48.29;97578.09;10658144;27;20039;-75
2023/06/09 15:12:11;;;;;;;5.90;3.50;;;;;;;26.02;49.51;97582.34;10657546;27;20100;-74
2023/06/09 15:17:32;;;;;;;5.13;3.97;;;;;;;26.01;49.43;97585.94;10643180;27;20083;-74
2023/06/09 15:22:53;;;;;;;4.78;3.85;;;;;;;25.03;50.68;97591.75;10628789;27;20042;-74
2023/06/09 15:28:15;;;;;;;5.13;3.03;;;;;;;24.05;52.60;97592.88;10657233;27;20401;-74
2023/06/09 15:33:39;;;;;;;2.83;2.20;;;;;;;23.42;53.87;97594.84;10686148;27;20503;-74
2023/06/09 15:39:00;;;;;;;2.60;1.67;;;;;;;23.01;53.90;97593.50;10642194;27;20070;-74
2023/06/09 15:44:20;;;;;;;2.65;2.00;;;;;;;22.53;54.59;97597.66;10655955;27;20050;-72
2023/06/09 15:49:41;;;;;;;2.17;1.98;;;;;;;22.45;55.58;97594.66;10641064;27;20480;-74
2023/06/09 15:55:05;;;;;;;2.40;2.00;;;;;;;22.68;55.79;97584.41;10629623;27;20070;-73
2023/06/09 16:00:31;;;;;;;4.45;1.98;;;;;;;22.55;56.98;97577.75;10570969;27;20043;-74
2023/06/09 16:05:51;;;;;;;3.25;2.22;;;;;;;22.56;56.54;97590.59;10599658;27;20043;-72
2023/06/09 16:11:12;;;;;;;2.70;2.25;;;;;;;22.26;56.50;97584.34;10598175;27;20092;-71
2023/06/09 16:16:33;;;;;;;2.47;1.70;;;;;;;22.09;57.31;97580.47;10627898;27;20045;-70
2023/06/09 16:21:54;;;;;;;3.38;2.20;;;;;;;21.97;57.80;97572.38;10569684;27;20035;-71
2023/06/09 16:27:16;;;;;;;4.85;2.63;;;;;;;21.79;57.74;97566.34;10597460;27;20382;-72
2023/06/09 16:32:37;;;;;;;3.72;2.40;;;;;;;21.77;59.14;97563.44;10597838;27;20051;-74
2023/06/09 16:38:02;;;;;;;4.13;2.50;;;;;;;21.70;59.05;97556.19;10584910;27;20053;-76
2023/06/09 16:43:24;;;;;;;4.35;3.13;;;;;;;21.74;58.86;97550.63;10582907;27;20047;-76
2023/06/09 16:48:44;;;;;;;4.20;2.95;;;;;;;21.58;59.24;97558.78;10626479;27;20046;-75
2023/06/09 16:54:05;;;;;;;3.85;2.65;;;;;;;21.51;59.45;97554.38;10596260;27;20049;-74
2023/06/09 16:59:26;;;;;;;3.80;3.05;;;;;;;21.48;59.90;97550.06;10610520;27;20099;-76
2023/06/09 17:04:47;;;;;;;4.25;3.17;;;;;;;21.57;59.94;97563.75;10638632;27;20066;-76
2023/06/09 17:10:08;;;;;;;4.90;2.72;;;;;;;21.60;60.44;97561.66;10638516;27;20042;-77
2023/06/09 17:15:29;;;;;;;3.88;2.90;;;;;;;21.72;60.75;97556.25;10652836;27;20374;-77
2023/06/09 17:20:50;;;;;;;5.00;2.92;;;;;;;21.77;60.90;97552.09;10635131;27;20039;-78
2023/06/09 17:26:11;;;;;;;4.25;2.72;;;;;;;21.81;60.76;97557.88;10638272;27;20167;-78
2023/06/09 17:31:33;;;;;;;3.47;2.67;;;;;;;21.67;60.82;97569.66;10652192;27;20051;-79
2023/06/09 17:36:54;;;;;;;4.57;3.10;;;;;;;21.55;61.40;97568.69;10651663;27;20042;-82
2023/06/09 17:42:15;;;;;;;5.97;2.85;;;;;;;21.45;61.44;97574.13;10651906;27;20054;-82
2023/06/09 17:47:36;;;;;;;5.28;2.83;;;;;;;21.30;61.17;97570.97;10637467;27;20038;-77
2023/06/09 17:52:58;;;;;;;5.60;3.00;;;;;;;21.19;61.73;97568.53;10651802;27;20050;-77
2023/06/09 17:58:18;;;;;;;4.38;2.92;;;;;;;21.22;61.70;97570.75;10651560;27;20495;-78
2023/06/09 18:03:41;;;;;;;4.80;3.42;;;;;;;21.12;61.19;97573.34;10637654;27;20035;-78
2023/06/09 18:09:03;;;;;;;5.60;3.40;;;;;;;20.99;61.62;97572.34;10651508;27;20046;-78
2023/06/09 18:14:24;;;;;;;6.43;3.22;;;;;;;20.86;62.06;97587.66;10651198;27;20468;-78
2023/06/09 18:19:45;;;;;;;6.32;3.10;;;;;;;20.70;61.96;97592.91;10636768;27;20491;-79
2023/06/09 18:25:07;;;;;;;3.78;3.17;;;;;;;20.61;62.25;97591.97;10622585;27;20046;-77
2023/06/09 18:30:28;;;;;;;5.00;3.22;;;;;;;20.50;62.43;97590.28;10636907;27;20429;-78
2023/06/09 18:35:49;;;;;;;3.95;3.25;;;;;;;20.48;63.31;97588.09;10665081;27;20054;-76
2023/06/09 18:41:10;;;;;;;5.00;3.30;;;;;;;20.39;62.88;97594.94;10618428;27;20043;-76
2023/06/09 18:46:31;;;;;;;4.90;3.33;;;;;;;20.30;63.62;97598.94;10612049;27;20095;-74
2023/06/09 18:51:52;;;;;;;4.43;3.20;;;;;;;20.25;63.52;97598.09;10587736;27;20392;-75
2023/06/09 18:57:13;;;;;;;4.43;3.40;;;;;;;20.20;64.16;97588.03;10601428;27;20039;-75
2023/06/09 19:02:35;;;;;;;3.92;3.33;;;;;;;20.13;64.23;97586.44;10601023;27;20533;-74
2023/06/09 19:07:56;;;;;;;3.83;3.08;;;;;;;19.98;64.54;97588.16;10615376;27;20045;-76
2023/06/09 19:13:16;;;;;;;5.57;3.60;;;;;;;19.87;65.25;97600.56;10632348;27;20050;-76
2023/06/09 19:18:37;;;;;;;6.15;3.55;;;;;;;19.69;65.73;97597.22;10605312;27;20046;-75
2023/06/09 19:23:58;;;;;;;5.43;3.53;;;;;;;19.61;66.24;97603.38;10607817;27;20072;-75
2023/06/09 19:29:19;;;;;;;5.18;3.53;;;;;;;19.48;66.61;97598.69;10604982;27;20034;-75
2023/06/09 19:34:40;;;;;;;4.65;3.40;;;;;;;19.42;67.63;97604.16;10606911;27;20047;-76
2023/06/09 19:40:01;;;;;;;4.38;3.40;;;;;;;19.39;67.81;97594.16;10607067;27;20046;-76
2023/06/09 19:45:22;;;;;;;4.35;3.10;;;;;;;19.40;68.40;97598.44;10633297;27;20378;-75
2023/06/09 19:50:43;;;;;;;5.40;4.10;;;;;;;19.44;68.69;97598.56;10618751;27;20058;-76
2023/06/09 19:56:04;;;;;;;4.03;3.38;;;;;;;19.47;69.05;97593.69;10619070;27;20043;-76
2023/06/09 20:01:25;;;;;;;4.75;3.50;;;;;;;19.42;69.19;97598.50;10616169;27;20060;-75
2023/06/09 20:06:46;;;;;;;7.43;4.85;;;;;;;19.43;68.85;97595.00;10606492;27;20039;-75
2023/06/09 20:12:07;;;;;;;5.65;4.63;;;;;;;19.43;69.31;97591.47;10568518;27;20476;-76
2023/06/09 20:17:28;;;;;;;5.28;3.53;;;;;;;19.43;69.68;97582.97;10581076;27;20042;-76
2023/06/09 20:22:50;;;;;;;5.85;3.67;;;;;;;19.46;69.64;97590.13;10569803;27;20057;-75
2023/06/09 20:28:11;;;;;;;5.68;4.07;;;;;;;19.42;69.72;97595.69;10592863;27;20040;-76
2023/06/09 20:33:34;;;;;;;6.45;3.70;;;;;;;19.42;70.03;97604.88;10582257;27;20072;-76
2023/06/09 20:38:55;;;;;;;5.55;3.97;;;;;;;19.41;70.15;97603.44;10582238;27;20080;-76
2023/06/09 20:44:16;;;;;;;4.82;4.05;;;;;;;19.41;70.19;97597.06;10581443;27;20164;-75
2023/06/09 20:49:37;;;;;;;5.15;3.85;;;;;;;19.41;70.47;97614.03;10567333;27;20059;-76
2023/06/09 20:54:58;;;;;;;8.80;4.00;;;;;;;19.38;70.37;97618.19;10581223;27;20043;-76
2023/06/09 21:00:19;;;;;;;6.85;4.63;;;;;;;19.29;70.90;97620.03;10580872;27;20039;-75
2023/06/09 21:05:40;;;;;;;5.95;4.25;;;;;;;19.19;71.14;97621.81;10566658;27;20043;-76
2023/06/09 21:11:01;;;;;;;4.85;4.00;;;;;;;19.03;71.18;97616.38;10580036;27;20043;-75
2023/06/09 21:16:22;;;;;;;6.80;4.30;;;;;;;18.90;71.47;97612.41;10594120;27;20100;-76
2023/06/09 21:21:43;;;;;;;6.85;4.30;;;;;;;18.89;71.65;97602.50;10567399;28;20036;-74
2023/06/09 21:27:05;;;;;;;7.25;4.05;;;;;;;18.82;72.02;97598.75;10553107;28;20046;-75
2023/06/09 21:32:26;;;;;;;5.43;4.07;;;;;;;18.87;72.29;97594.66;10565713;27;20397;-75
2023/06/09 21:37:47;;;;;;;7.47;4.38;;;;;;;18.94;72.07;97581.47;10595809;27;20035;-75
2023/06/09 21:43:08;;;;;;;5.00;4.25;;;;;;;19.01;72.22;97585.94;10585463;27;20039;-76
2023/06/09 21:48:30;;;;;;;5.78;4.15;;;;;;;19.04;71.97;97587.44;10554676;27;20039;-75
2023/06/09 21:53:51;;;;;;;5.18;4.30;;;;;;;19.04;72.16;97589.53;10586477;28;20035;-75
2023/06/09 21:59:12;;;;;;;7.57;3.97;;;;;;;19.05;72.30;97588.88;10576618;28;20062;-75
2023/06/09 22:04:33;;;;;;;4.55;3.60;;;;;;;19.08;72.33;97590.38;10565187;28;20035;-76
2023/06/09 22:09:54;;;;;;;4.22;3.80;;;;;;;19.09;72.27;97591.09;10564480;28;20404;-75
2023/06/09 22:15:16;;;;;;;5.57;3.90;;;;;;;19.06;72.14;97590.31;10579313;28;20118;-74
2023/06/09 22:20:37;;;;;;;6.85;4.13;;;;;;;19.06;72.30;97581.84;10579124;28;20042;-74
2023/06/09 22:25:58;;;;;;;6.32;4.20;;;;;;;18.98;72.48;97561.78;10580041;27;20043;-75
2023/06/09 22:31:19;;;;;;;6.90;4.22;;;;;;;18.90;72.12;97564.34;10610164;27;20052;-75
2023/06/09 22:36:40;;;;;;;4.97;3.97;;;;;;;18.68;72.49;97572.09;10586498;27;20046;-75
2023/06/09 22:42:02;;;;;;;5.60;4.20;;;;;;;18.49;72.65;97568.66;10587277;27;20133;-74
2023/06/09 22:47:23;;;;;;;5.88;4.30;;;;;;;18.31;72.84;97573.66;10616236;27;20532;-74
2023/06/09 22:52:45;;;;;;;5.25;4.07;;;;;;;18.16;73.56;97555.53;10616154;27;20047;-74
2023/06/09 22:58:06;;;;;;;5.38;3.97;;;;;;;18.05;73.66;97558.63;10587454;27;20141;-74
2023/06/09 23:03:27;;;;;;;5.43;4.05;;;;;;;17.93;73.62;97551.16;10601301;27;20047;-75
2023/06/09 23:08:47;;;;;;;5.97;4.60;;;;;;;17.83;73.92;97555.72;10600981;27;20059;-75
2023/06/09 23:14:08;;;;;;;6.63;4.45;;;;;;;17.76;73.91;97560.44;10586691;27;20039;-75
2023/06/09 23:19:32;;;;;;;4.57;3.97;;;;;;;17.65;74.26;97561.41;10586470;27;20063;-75
2023/06/09 23:24:53;;;;;;;6.22;4.43;;;;;;;17.55;74.39;97558.94;10587140;27;20069;-76
2023/06/09 23:30:14;;;;;;;7.30;4.35;;;;;;;17.50;74.73;97550.97;10629831;27;20065;-75
2023/06/09 23:35:36;;;;;;;5.93;4.45;;;;;;;17.36;74.96;97549.06;10612903;27;20081;-73
2023/06/09 23:40:58;;;;;;;5.68;4.63;;;;;;;17.26;75.46;97562.78;10599761;27;20039;-74
2023/06/09 23:46:19;;;;;;;5.70;4.38;;;;;;;17.17;75.39;97546.91;10599909;27;20067;-74
2023/06/09 23:51:40;;;;;;;6.53;4.57;;;;;;;17.12;75.57;97548.13;10585340;27;20426;-75
2023/06/09 23:57:01;;;;;;;5.53;4.72;;;;;;;17.08;75.99;97553.59;10576637;27;20039;-75
